F/V Mare Liberum — FVHW — position and weather

sailwx.info

Track history (hours):
 
Tides and Currents Weather Stations Pressure Air Temp Water Temp Dewpoint Dewpoint Depression Visibility Wind Speed Wind Dir Waves Ship Positions

F/V Mare Liberum

Last reported at 2014-Oct-31 08:12 UTC. Time now 2014-Oct-31 09:57 UTC.
Position N 47°01' W 002°18'.

Length 21 m.

Type: Fishing. MMSI: 227426000.

Date/timePositionNaut miles runAvg speedWind from/ knotsBaromVisibWave heightAir tempDewpointWater temp
2014-Oct-31 08:12N 47°01' W 002°18'0 0.0
2014-Oct-31 07:31N 47°01' W 002°18'0 0.0
2014-Oct-31 06:25N 47°01' W 002°18'0 0.0
2014-Oct-31 05:33N 47°01' W 002°18'0 0.0
2014-Oct-31 03:31N 47°01' W 002°18'0 0.0
2014-Oct-31 02:30N 47°01' W 002°18'0 0.0
2014-Oct-31 01:31N 47°01' W 002°18'0 0.0
2014-Oct-31 00:15N 47°01' W 002°18'0 0.0
2014-Oct-30 23:30N 47°01' W 002°18'0 0.0
2014-Oct-30 22:31N 47°01' W 002°18'0 0.0
2014-Oct-30 21:33N 47°01' W 002°18'0 0.0
2014-Oct-30 20:28N 47°01' W 002°18'0 0.0
2014-Oct-30 19:27N 47°01' W 002°18'17 1.3
2014-Oct-30 06:31N 46°45' W 002°16'1910.0
2014-Oct-30 04:33N 46°26' W 002°09'8 7.8
2014-Oct-30 03:32N 46°19' W 002°06'1 1.4
2014-Oct-30 02:31N 46°20' W 002°07'1 1.3
2014-Oct-30 01:25N 46°18' W 002°06'0 0.3
2014-Oct-30 00:33N 46°18' W 002°07'1 1.1
2014-Oct-29 23:20N 46°19' W 002°08'0 0.4
2014-Oct-29 22:23N 46°19' W 002°08'0 0.4
2014-Oct-29 21:33N 46°19' W 002°08'0 0.0
2014-Oct-29 20:33N 46°19' W 002°08'0 0.0
2014-Oct-29 19:30N 46°19' W 002°08'0 0.0
2014-Oct-29 17:31N 46°19' W 002°08'0 0.0
2014-Oct-29 16:33N 46°19' W 002°08'0 0.0
2014-Oct-29 15:32N 46°19' W 002°08'1 0.4
2014-Oct-29 12:15N 46°18' W 002°07'1 1.0
2014-Oct-29 11:14N 46°19' W 002°07'1 0.7
2014-Oct-29 10:31N 46°19' W 002°06'1 0.8
2014-Oct-29 09:30N 46°20' W 002°07'1 0.3
2014-Oct-29 06:22N 46°19' W 002°06'2 1.6
2014-Oct-29 05:27N 46°17' W 002°05'2 2.3
2014-Oct-29 04:31N 46°19' W 002°07'1 1.3
2014-Oct-29 03:20N 46°18' W 002°06'1 1.1
2014-Oct-29 02:30N 46°17' W 002°06'1 0.2
2014-Oct-28 22:17N 46°17' W 002°06'0 0.0
2014-Oct-28 21:17N 46°17' W 002°06'1 0.1
2014-Oct-28 12:11N 46°18' W 002°07'1 1.3
2014-Oct-28 11:33N 46°19' W 002°07'0 0.4
2014-Oct-28 10:08N 46°19' W 002°06'1 0.6
2014-Oct-28 08:33N 46°18' W 002°06'0 0.1
2014-Oct-28 05:27N 46°18' W 002°07'2 1.7
2014-Oct-28 04:27N 46°17' W 002°05'1 0.2
2014-Oct-28 02:16N 46°17' W 002°06'1 1.2
2014-Oct-28 01:33N 46°17' W 002°07'0 0.1
2014-Oct-28 00:30N 46°17' W 002°07'0 0.0
2014-Oct-27 23:33N 46°17' W 002°07'0 0.0
2014-Oct-27 22:33N 46°17' W 002°07'0 0.0
2014-Oct-27 21:33N 46°17' W 002°07'0 0.0
2014-Oct-27 20:33N 46°17' W 002°07'0 0.0
2014-Oct-27 19:33N 46°17' W 002°07'0 0.1
2014-Oct-27 18:33N 46°17' W 002°07'0 0.0
2014-Oct-27 16:33N 46°17' W 002°07'0 0.1
2014-Oct-27 15:27N 46°17' W 002°07'0 0.0
2014-Oct-27 14:33N 46°17' W 002°07'0 0.0
2014-Oct-27 13:19N 46°17' W 002°07'0 0.3
2014-Oct-27 12:33N 46°17' W 002°07'1 0.8
2014-Oct-27 11:30N 46°17' W 002°06'2 1.3
2014-Oct-27 10:11N 46°19' W 002°06'1 1.8
2014-Oct-27 09:32N 46°18' W 002°05'1 0.7
2014-Oct-27 07:24N 46°19' W 002°07'2 2.2
2014-Oct-27 06:33N 46°17' W 002°05'1 0.5
2014-Oct-27 05:28N 46°17' W 002°06'1 0.3
2014-Oct-27 03:08N 46°17' W 002°06'1 0.2
2014-Oct-26 23:32N 46°17' W 002°05'2 0.1
2014-Oct-26 11:17N 46°19' W 002°07'0 0.4
2014-Oct-26 10:05N 46°18' W 002°07'1 0.4
2014-Oct-26 08:27N 46°18' W 002°06'0 0.3
2014-Oct-26 07:33N 46°18' W 002°05'1 1.0
2014-Oct-26 06:33N 46°18' W 002°06'1 0.7
2014-Oct-26 05:25N 46°18' W 002°07'0 0.1
2014-Oct-26 03:24N 46°18' W 002°07'0 0.4
2014-Oct-26 02:18N 46°18' W 002°07'1 0.3
2014-Oct-25 22:33N 46°17' W 002°07'0 0.0
2014-Oct-25 19:33N 46°17' W 002°07'2 0.2
2014-Oct-25 09:06N 46°18' W 002°07'0 0.6
2014-Oct-25 08:33N 46°18' W 002°07'5 1.1
2014-Oct-25 04:05N 46°17' W 002°00'2 2.8
2014-Oct-25 03:21N 46°15' W 001°59'1 1.6
2014-Oct-25 02:26N 46°16' W 002°00'1 0.2
2014-Oct-24 21:16N 46°15' W 001°60'2 0.2
2014-Oct-24 08:30N 46°17' W 001°59'6 4.5
2014-Oct-24 07:15N 46°18' W 002°07'0 0.0
2014-Oct-23 16:06N 46°18' W 002°07'0 0.0
2014-Oct-23 15:33N 46°18' W 002°07'0 0.0
2014-Oct-23 14:33N 46°18' W 002°07'0 0.1
2014-Oct-23 10:22N 46°18' W 002°07'1 0.4
2014-Oct-23 06:26N 46°19' W 002°08'3 2.2
2014-Oct-23 05:12N 46°17' W 002°06'1 0.4
2014-Oct-23 01:16N 46°18' W 002°07'2 0.1
2014-Oct-22 08:33N 46°20' W 002°08'9 9.0
2014-Oct-22 07:33N 46°29' W 002°10'  
Track history (hours):
 
Tides and Currents Weather Stations Pressure Air Temp Water Temp Dewpoint Dewpoint Depression Visibility Wind Speed Wind Dir Waves Ship Positions

F/V Mare Liberum

Last reported at 2014-Oct-31 08:12 UTC. Time now 2014-Oct-31 09:57 UTC.
Position N 47°01' W 002°18'.

Length 21 m.

Type: Fishing. MMSI: 227426000.

Date/timePositionNaut miles runAvg speedWind from/ knotsBaromVisibWave heightAir tempDewpointWater temp
2014-Oct-31 08:12N 47°01' W 002°18'0 0.0
2014-Oct-31 07:31N 47°01' W 002°18'0 0.0
2014-Oct-31 06:25N 47°01' W 002°18'0 0.0
2014-Oct-31 05:33N 47°01' W 002°18'0 0.0
2014-Oct-31 03:31N 47°01' W 002°18'0 0.0
2014-Oct-31 02:30N 47°01' W 002°18'0 0.0
2014-Oct-31 01:31N 47°01' W 002°18'0 0.0
2014-Oct-31 00:15N 47°01' W 002°18'0 0.0
2014-Oct-30 23:30N 47°01' W 002°18'0 0.0
2014-Oct-30 22:31N 47°01' W 002°18'0 0.0
2014-Oct-30 21:33N 47°01' W 002°18'0 0.0
2014-Oct-30 20:28N 47°01' W 002°18'0 0.0
2014-Oct-30 19:27N 47°01' W 002°18'17 1.3
2014-Oct-30 06:31N 46°45' W 002°16'1910.0
2014-Oct-30 04:33N 46°26' W 002°09'8 7.8
2014-Oct-30 03:32N 46°19' W 002°06'1 1.4
2014-Oct-30 02:31N 46°20' W 002°07'1 1.3
2014-Oct-30 01:25N 46°18' W 002°06'0 0.3
2014-Oct-30 00:33N 46°18' W 002°07'1 1.1
2014-Oct-29 23:20N 46°19' W 002°08'0 0.4
2014-Oct-29 22:23N 46°19' W 002°08'0 0.4
2014-Oct-29 21:33N 46°19' W 002°08'0 0.0
2014-Oct-29 20:33N 46°19' W 002°08'0 0.0
2014-Oct-29 19:30N 46°19' W 002°08'0 0.0
2014-Oct-29 17:31N 46°19' W 002°08'0 0.0
2014-Oct-29 16:33N 46°19' W 002°08'0 0.0
2014-Oct-29 15:32N 46°19' W 002°08'1 0.4
2014-Oct-29 12:15N 46°18' W 002°07'1 1.0
2014-Oct-29 11:14N 46°19' W 002°07'1 0.7
2014-Oct-29 10:31N 46°19' W 002°06'1 0.8
2014-Oct-29 09:30N 46°20' W 002°07'1 0.3
2014-Oct-29 06:22N 46°19' W 002°06'2 1.6
2014-Oct-29 05:27N 46°17' W 002°05'2 2.3
2014-Oct-29 04:31N 46°19' W 002°07'1 1.3
2014-Oct-29 03:20N 46°18' W 002°06'1 1.1
2014-Oct-29 02:30N 46°17' W 002°06'1 0.2
2014-Oct-28 22:17N 46°17' W 002°06'0 0.0
2014-Oct-28 21:17N 46°17' W 002°06'1 0.1
2014-Oct-28 12:11N 46°18' W 002°07'1 1.3
2014-Oct-28 11:33N 46°19' W 002°07'0 0.4
2014-Oct-28 10:08N 46°19' W 002°06'1 0.6
2014-Oct-28 08:33N 46°18' W 002°06'0 0.1
2014-Oct-28 05:27N 46°18' W 002°07'2 1.7
2014-Oct-28 04:27N 46°17' W 002°05'1 0.2
2014-Oct-28 02:16N 46°17' W 002°06'1 1.2
2014-Oct-28 01:33N 46°17' W 002°07'0 0.1
2014-Oct-28 00:30N 46°17' W 002°07'0 0.0
2014-Oct-27 23:33N 46°17' W 002°07'0 0.0
2014-Oct-27 22:33N 46°17' W 002°07'0 0.0
2014-Oct-27 21:33N 46°17' W 002°07'0 0.0
2014-Oct-27 20:33N 46°17' W 002°07'0 0.0
2014-Oct-27 19:33N 46°17' W 002°07'0 0.1
2014-Oct-27 18:33N 46°17' W 002°07'0 0.0
2014-Oct-27 16:33N 46°17' W 002°07'0 0.1
2014-Oct-27 15:27N 46°17' W 002°07'0 0.0
2014-Oct-27 14:33N 46°17' W 002°07'0 0.0
2014-Oct-27 13:19N 46°17' W 002°07'0 0.3
2014-Oct-27 12:33N 46°17' W 002°07'1 0.8
2014-Oct-27 11:30N 46°17' W 002°06'2 1.3
2014-Oct-27 10:11N 46°19' W 002°06'1 1.8
2014-Oct-27 09:32N 46°18' W 002°05'1 0.7
2014-Oct-27 07:24N 46°19' W 002°07'2 2.2
2014-Oct-27 06:33N 46°17' W 002°05'1 0.5
2014-Oct-27 05:28N 46°17' W 002°06'1 0.3
2014-Oct-27 03:08N 46°17' W 002°06'1 0.2
2014-Oct-26 23:32N 46°17' W 002°05'2 0.1
2014-Oct-26 11:17N 46°19' W 002°07'0 0.4
2014-Oct-26 10:05N 46°18' W 002°07'1 0.4
2014-Oct-26 08:27N 46°18' W 002°06'0 0.3
2014-Oct-26 07:33N 46°18' W 002°05'1 1.0
2014-Oct-26 06:33N 46°18' W 002°06'1 0.7
2014-Oct-26 05:25N 46°18' W 002°07'0 0.1
2014-Oct-26 03:24N 46°18' W 002°07'0 0.4
2014-Oct-26 02:18N 46°18' W 002°07'1 0.3
2014-Oct-25 22:33N 46°17' W 002°07'0 0.0
2014-Oct-25 19:33N 46°17' W 002°07'2 0.2
2014-Oct-25 09:06N 46°18' W 002°07'0 0.6
2014-Oct-25 08:33N 46°18' W 002°07'5 1.1
2014-Oct-25 04:05N 46°17' W 002°00'2 2.8
2014-Oct-25 03:21N 46°15' W 001°59'1 1.6
2014-Oct-25 02:26N 46°16' W 002°00'1 0.2
2014-Oct-24 21:16N 46°15' W 001°60'2 0.2
2014-Oct-24 08:30N 46°17' W 001°59'6 4.5
2014-Oct-24 07:15N 46°18' W 002°07'0 0.0
2014-Oct-23 16:06N 46°18' W 002°07'0 0.0
2014-Oct-23 15:33N 46°18' W 002°07'0 0.0
2014-Oct-23 14:33N 46°18' W 002°07'0 0.1
2014-Oct-23 10:22N 46°18' W 002°07'1 0.4
2014-Oct-23 06:26N 46°19' W 002°08'3 2.2
2014-Oct-23 05:12N 46°17' W 002°06'1 0.4
2014-Oct-23 01:16N 46°18' W 002°07'2 0.1
2014-Oct-22 08:33N 46°20' W 002°08'9 9.0
2014-Oct-22 07:33N 46°29' W 002°10'  

Dump ship's entire track history